Time;durP1;ratioP1;P1;durP2;ratioP2;P2;SDS_P1;SDS_P2;PMS_P1;PMS_P2;Temp;Humidity;BMP_temperature;BMP_pressure;BME280_temperature;BME280_humidity;BME280_pressure;Samples;Min_cycle;Max_cycle;Signal;HPM_P1;HPM_P2
2022/01/15 00:01:58;;;;;;;7.20;2.87;;;5.50;99.90;;;;;;5078402;28;20493;-47
2022/01/15 00:04:24;;;;;;;9.57;3.63;;;5.50;99.90;;;;;;5078010;28;20466;-48
2022/01/15 00:06:51;;;;;;;4.13;1.53;;;5.50;99.90;;;;;;5078021;28;20928;-43
2022/01/15 00:09:19;;;;;;;9.40;2.17;;;5.40;99.90;;;;;;5078132;28;20472;-48
2022/01/15 00:11:45;;;;;;;17.93;2.73;;;5.50;99.90;;;;;;5078011;28;20443;-45
2022/01/15 00:14:15;;;;;;;18.83;2.90;;;5.50;99.90;;;;;;5077909;28;20479;-42
2022/01/15 00:16:48;;;;;;;3.13;1.97;;;5.40;99.90;;;;;;5077787;28;20458;-44
2022/01/15 00:19:17;;;;;;;13.80;2.17;;;5.40;99.90;;;;;;5077514;28;20429;-44
2022/01/15 00:21:45;;;;;;;11.83;2.83;;;5.30;99.90;;;;;;5078015;28;20444;-43
2022/01/15 00:24:11;;;;;;;4.60;1.67;;;5.30;99.90;;;;;;5077926;28;20456;-49
2022/01/15 00:26:38;;;;;;;3.77;1.73;;;5.20;99.90;;;;;;5077707;28;20549;-47
2022/01/15 00:29:08;;;;;;;14.00;1.70;;;5.20;99.90;;;;;;5077946;28;20550;-45
2022/01/15 00:31:34;;;;;;;4.47;1.83;;;5.10;99.90;;;;;;5077851;28;20444;-42
2022/01/15 00:34:03;;;;;;;19.07;1.80;;;5.10;99.90;;;;;;5077220;28;20457;-41
2022/01/15 00:36:30;;;;;;;3.53;1.80;;;5.10;99.90;;;;;;5077026;28;20428;-42
2022/01/15 00:38:56;;;;;;;6.40;2.20;;;5.10;99.90;;;;;;5077393;28;20443;-49
2022/01/15 00:41:26;;;;;;;9.33;1.70;;;5.10;99.90;;;;;;5077884;28;20436;-46
2022/01/15 00:43:53;;;;;;;12.97;2.07;;;5.00;99.90;;;;;;5077491;28;20439;-50
2022/01/15 00:46:21;;;;;;;3.20;2.03;;;5.00;99.90;;;;;;5077623;28;20428;-44
2022/01/15 00:48:48;;;;;;;7.07;2.20;;;5.00;99.90;;;;;;5077812;28;20509;-46
2022/01/15 00:51:16;;;;;;;4.73;1.80;;;5.10;99.90;;;;;;5076895;28;20468;-45
2022/01/15 00:53:42;;;;;;;11.73;2.63;;;5.00;99.90;;;;;;5077439;28;20581;-49
2022/01/15 00:56:10;;;;;;;13.03;2.83;;;5.00;99.90;;;;;;5077255;28;20440;-43
2022/01/15 00:58:37;;;;;;;9.70;2.33;;;5.00;99.90;;;;;;5077246;28;20432;-42
2022/01/15 01:01:04;;;;;;;6.53;2.30;;;5.00;99.90;;;;;;5076849;28;20458;-45
2022/01/15 01:03:31;;;;;;;8.13;2.67;;;5.10;99.90;;;;;;5077306;28;20463;-47
2022/01/15 01:05:57;;;;;;;10.13;1.93;;;5.10;99.90;;;;;;5076445;28;20485;-44
2022/01/15 01:08:25;;;;;;;15.57;2.77;;;5.00;99.90;;;;;;5076872;28;20440;-45
2022/01/15 01:10:56;;;;;;;4.80;2.70;;;5.00;99.90;;;;;;5077105;28;20455;-45
2022/01/15 01:22:36;;;;;;;19.73;4.83;;;5.10;99.90;;;;;;5076585;28;20478;-51
2022/01/15 01:24:48;;;;;;;6.83;2.47;;;5.00;99.90;;;;;;5076832;28;20523;-46
2022/01/15 01:27:22;;;;;;;18.10;2.67;;;5.00;99.90;;;;;;5076375;28;20467;-43
2022/01/15 01:32:45;;;;;;;16.83;2.57;;;4.90;99.90;;;;;;5029188;28;20443;-43
2022/01/15 01:35:19;;;;;;;8.50;1.90;;;5.00;99.90;;;;;;5030211;28;20440;-41
2022/01/15 01:37:51;;;;;;;5.43;2.20;;;4.90;99.90;;;;;;5029641;28;20491;-43
2022/01/15 01:40:23;;;;;;;8.17;1.40;;;5.00;99.90;;;;;;5030035;28;20500;-43
2022/01/15 01:42:59;;;;;;;3.70;1.53;;;4.90;99.90;;;;;;5029984;28;20438;-41
2022/01/15 01:45:26;;;;;;;8.70;1.80;;;4.80;99.90;;;;;;5031065;28;20476;-42
2022/01/15 01:47:53;;;;;;;9.20;2.40;;;4.80;99.90;;;;;;5031219;28;20465;-43
2022/01/15 01:50:22;;;;;;;3.47;1.37;;;4.70;99.90;;;;;;5030677;28;20504;-44
2022/01/15 01:52:53;;;;;;;4.40;1.90;;;4.70;99.90;;;;;;5029261;28;20477;-42
2022/01/15 01:55:22;;;;;;;12.77;2.23;;;4.70;99.90;;;;;;5029647;28;20913;-41
2022/01/15 01:57:50;;;;;;;5.13;2.10;;;4.60;99.90;;;;;;5029368;28;20480;-44
2022/01/15 02:00:19;;;;;;;4.10;1.43;;;4.60;99.90;;;;;;5028979;28;20438;-42
2022/01/15 02:02:46;;;;;;;3.43;2.77;;;4.60;99.90;;;;;;5029229;28;20488;-45
2022/01/15 02:05:14;;;;;;;2.67;1.70;;;4.60;99.90;;;;;;5029222;28;20450;-42
2022/01/15 02:07:41;;;;;;;4.80;2.33;;;4.70;99.90;;;;;;5028687;28;20461;-43
2022/01/15 02:10:09;;;;;;;4.10;1.80;;;4.60;99.90;;;;;;5028673;28;20504;-44
2022/01/15 02:12:37;;;;;;;8.00;2.10;;;4.70;99.90;;;;;;5028992;28;20450;-43
2022/01/15 02:15:09;;;;;;;8.07;1.20;;;4.70;99.90;;;;;;5029628;28;20465;-41
2022/01/15 02:17:36;;;;;;;4.00;1.50;;;4.70;99.90;;;;;;5030744;28;20445;-44
2022/01/15 02:20:36;;;;;;;2.30;1.40;;;4.60;99.90;;;;;;5031230;28;20441;-41
2022/01/15 02:25:54;;;;;;;4.00;1.90;;;4.50;99.90;;;;;;5029295;28;20408;-42
2022/01/15 02:28:24;;;;;;;4.40;1.53;;;4.40;99.90;;;;;;5028783;28;20477;-43
2022/01/15 02:30:57;;;;;;;4.23;1.60;;;4.40;99.90;;;;;;5027976;28;20516;-40
2022/01/15 02:33:25;;;;;;;7.33;2.03;;;4.40;99.90;;;;;;5028927;28;20430;-45
2022/01/15 02:35:53;;;;;;;5.77;1.90;;;4.40;99.90;;;;;;5029809;28;20500;-43
2022/01/15 02:38:21;;;;;;;5.30;1.73;;;4.40;99.90;;;;;;5029317;28;20749;-43
2022/01/15 02:40:48;;;;;;;8.60;4.20;;;4.50;99.90;;;;;;5029175;28;20461;-41
2022/01/15 02:43:18;;;;;;;16.50;3.13;;;4.40;99.90;;;;;;5029338;28;20767;-41
2022/01/15 02:45:54;;;;;;;3.57;1.97;;;4.40;99.90;;;;;;5030401;28;20433;-43
2022/01/15 02:48:21;;;;;;;8.93;2.20;;;4.40;99.90;;;;;;5030561;28;20484;-43
2022/01/15 02:50:48;;;;;;;4.30;1.30;;;4.40;99.90;;;;;;5031797;28;20482;-43
2022/01/15 02:53:17;;;;;;;7.03;3.87;;;4.40;99.90;;;;;;5030654;28;20500;-41
2022/01/15 02:55:45;;;;;;;13.33;3.47;;;4.30;99.90;;;;;;5029296;28;20511;-43
2022/01/15 02:58:12;;;;;;;7.20;2.20;;;4.30;99.90;;;;;;5029249;28;20461;-44
2022/01/15 03:00:39;;;;;;;7.17;2.40;;;4.30;99.90;;;;;;5032113;28;20442;-43
2022/01/15 03:03:06;;;;;;;7.40;2.23;;;4.30;99.90;;;;;;5034914;28;20479;-42
2022/01/15 03:05:33;;;;;;;19.70;1.50;;;4.30;99.90;;;;;;5034215;28;20477;-43
2022/01/15 03:07:59;;;;;;;11.50;2.87;;;4.20;99.90;;;;;;5035800;28;20445;-42
2022/01/15 03:10:28;;;;;;;8.67;3.03;;;4.20;99.90;;;;;;5036075;28;20492;-40
2022/01/15 03:12:56;;;;;;;6.30;1.73;;;4.20;99.90;;;;;;5034632;28;20470;-41
2022/01/15 03:15:23;;;;;;;3.90;1.37;;;4.20;99.90;;;;;;5034462;28;20488;-43
2022/01/15 03:17:50;;;;;;;4.83;1.10;;;4.20;99.90;;;;;;5034310;28;20477;-46
2022/01/15 03:20:18;;;;;;;4.10;1.87;;;4.20;99.90;;;;;;5034104;28;20457;-43
2022/01/15 03:22:45;;;;;;;10.33;1.80;;;4.10;99.90;;;;;;5034757;28;21034;-43
2022/01/15 03:25:13;;;;;;;10.17;1.93;;;4.10;99.90;;;;;;5034340;28;20888;-43
2022/01/15 03:27:44;;;;;;;14.13;1.83;;;4.00;99.90;;;;;;5034233;28;20452;-44
2022/01/15 03:30:12;;;;;;;9.60;2.20;;;4.00;99.90;;;;;;5033762;28;20520;-44
2022/01/15 03:32:43;;;;;;;10.97;2.30;;;4.10;99.90;;;;;;5034715;28;20455;-42
2022/01/15 03:35:11;;;;;;;19.37;3.43;;;4.00;99.90;;;;;;5034886;28;20476;-41
2022/01/15 03:37:38;;;;;;;11.20;2.10;;;4.00;99.90;;;;;;5035979;28;20450;-43
2022/01/15 03:40:07;;;;;;;9.63;2.10;;;4.00;99.90;;;;;;5036603;28;20434;-47
2022/01/15 03:42:35;;;;;;;7.00;2.00;;;4.00;99.90;;;;;;5034820;28;20531;-44
2022/01/15 03:45:05;;;;;;;13.53;2.70;;;4.00;99.90;;;;;;5034921;28;20917;-41
2022/01/15 03:47:32;;;;;;;6.83;2.37;;;4.00;99.90;;;;;;5034880;28;20528;-44
2022/01/15 03:49:58;;;;;;;7.67;1.43;;;4.00;99.90;;;;;;5034863;28;20481;-41
2022/01/15 03:52:25;;;;;;;3.30;1.77;;;4.00;99.90;;;;;;5034938;28;20457;-48
2022/01/15 03:54:52;;;;;;;5.20;1.30;;;4.00;99.90;;;;;;5035226;28;20477;-40
2022/01/15 03:57:19;;;;;;;3.90;1.10;;;3.90;99.90;;;;;;5033611;28;20458;-43
2022/01/15 03:59:45;;;;;;;9.50;1.13;;;3.90;99.90;;;;;;5033792;28;20476;-41
2022/01/15 04:02:14;;;;;;;5.83;1.33;;;3.90;99.90;;;;;;5034787;28;20472;-40
2022/01/15 04:04:40;;;;;;;11.93;2.03;;;3.80;99.90;;;;;;5034266;28;20479;-41
2022/01/15 04:07:07;;;;;;;4.10;1.67;;;3.80;99.90;;;;;;5034737;28;20469;-43
2022/01/15 04:09:34;;;;;;;3.10;1.33;;;3.80;99.90;;;;;;5036133;28;20445;-46
2022/01/15 04:12:00;;;;;;;17.00;2.77;;;3.80;99.90;;;;;;5034298;28;20429;-42
2022/01/15 04:14:30;;;;;;;23.20;3.60;;;3.80;99.90;;;;;;5033915;28;20457;-45
2022/01/15 04:16:56;;;;;;;2.80;1.30;;;3.70;99.90;;;;;;5033564;28;20455;-43
2022/01/15 04:19:25;;;;;;;7.40;1.83;;;3.60;99.90;;;;;;5033600;28;20495;-41
2022/01/15 04:21:52;;;;;;;7.83;1.30;;;3.60;99.90;;;;;;5033181;28;20939;-43
2022/01/15 04:24:26;;;;;;;16.50;1.40;;;3.50;99.90;;;;;;5035604;28;20467;-44
2022/01/15 04:26:52;;;;;;;10.00;2.30;;;3.40;99.90;;;;;;5035521;28;20446;-42
2022/01/15 04:29:21;;;;;;;2.50;1.27;;;3.40;99.90;;;;;;5033520;28;20503;-42
2022/01/15 04:31:48;;;;;;;5.13;1.70;;;3.40;99.90;;;;;;5034196;28;20492;-40
2022/01/15 04:34:17;;;;;;;6.53;1.47;;;3.30;99.90;;;;;;5033652;28;20528;-41
2022/01/15 04:36:45;;;;;;;1.33;1.13;;;3.30;99.90;;;;;;5034041;28;20492;-46
2022/01/15 04:39:13;;;;;;;6.10;1.13;;;3.30;99.90;;;;;;5034046;28;20442;-48
2022/01/15 04:41:40;;;;;;;2.13;1.00;;;3.30;99.90;;;;;;5035591;28;20449;-46
2022/01/15 04:44:08;;;;;;;2.07;1.07;;;3.30;99.90;;;;;;5034744;28;20469;-39
2022/01/15 04:46:36;;;;;;;4.03;1.40;;;3.20;99.90;;;;;;5033956;28;20453;-44
2022/01/15 04:49:03;;;;;;;17.33;3.03;;;3.10;99.90;;;;;;5033961;28;20437;-39
2022/01/15 04:51:30;;;;;;;11.20;1.83;;;3.20;99.90;;;;;;5034480;28;20484;-42
2022/01/15 04:53:59;;;;;;;7.67;2.00;;;3.20;99.90;;;;;;5034792;28;20445;-41
2022/01/15 04:56:25;;;;;;;7.30;1.63;;;3.20;99.90;;;;;;5034763;28;20466;-41
2022/01/15 04:58:52;;;;;;;2.33;1.40;;;3.20;99.90;;;;;;5035195;28;20440;-41
2022/01/15 05:01:19;;;;;;;3.77;1.30;;;3.20;99.90;;;;;;5034733;28;20441;-39
2022/01/15 05:03:46;;;;;;;7.70;1.27;;;3.20;99.90;;;;;;5034999;28;20465;-44
2022/01/15 05:06:12;;;;;;;9.33;1.53;;;3.10;99.90;;;;;;5035440;28;20444;-43
2022/01/15 05:08:40;;;;;;;10.40;1.80;;;3.10;99.90;;;;;;5035377;28;20453;-41
2022/01/15 05:11:14;;;;;;;3.53;0.83;;;3.10;99.90;;;;;;5036903;28;20483;-52
2022/01/15 05:13:41;;;;;;;11.50;1.97;;;3.10;99.90;;;;;;5025468;28;20473;-44
2022/01/15 05:16:08;;;;;;;8.00;1.57;;;3.10;99.90;;;;;;5022289;28;20969;-42
2022/01/15 05:18:35;;;;;;;6.63;1.60;;;3.10;99.90;;;;;;5022378;28;20446;-41
2022/01/15 05:21:02;;;;;;;14.33;2.30;;;3.10;99.90;;;;;;5024524;28;20492;-47
2022/01/15 05:23:28;;;;;;;3.83;1.73;;;3.10;99.90;;;;;;5025616;28;20523;-41
2022/01/15 05:25:55;;;;;;;1.33;1.23;;;3.10;99.90;;;;;;5022435;28;20464;-42
2022/01/15 05:28:23;;;;;;;7.87;1.47;;;3.10;99.90;;;;;;5021709;28;21012;-43
2022/01/15 05:30:51;;;;;;;4.00;2.10;;;3.10;99.90;;;;;;5022614;28;20485;-42
2022/01/15 05:33:18;;;;;;;4.90;2.67;;;3.00;99.90;;;;;;5022904;28;20948;-39
2022/01/15 05:35:45;;;;;;;15.67;2.73;;;3.00;99.90;;;;;;5021805;28;21011;-41
2022/01/15 05:38:11;;;;;;;6.77;3.07;;;3.00;99.90;;;;;;5022496;28;20441;-41
2022/01/15 05:40:38;;;;;;;13.70;2.40;;;2.90;99.90;;;;;;5021914;28;20449;-39
2022/01/15 05:43:05;;;;;;;9.50;2.43;;;3.00;99.90;;;;;;5022345;28;20479;-42
2022/01/15 05:45:33;;;;;;;7.57;3.03;;;3.00;99.90;;;;;;5022344;28;20479;-41
2022/01/15 05:48:00;;;;;;;9.97;2.37;;;3.00;99.90;;;;;;5023101;28;20449;-41
2022/01/15 05:50:27;;;;;;;9.73;2.40;;;3.10;99.90;;;;;;5024898;28;20465;-42
2022/01/15 05:52:53;;;;;;;8.00;2.10;;;3.20;99.90;;;;;;5022249;28;20446;-43
2022/01/15 05:55:23;;;;;;;2.53;1.93;;;3.20;99.90;;;;;;5021498;28;20496;-43
2022/01/15 05:57:50;;;;;;;9.93;4.30;;;3.20;99.90;;;;;;5021055;28;20829;-40
2022/01/15 06:00:17;;;;;;;4.00;2.67;;;3.20;99.90;;;;;;5021353;28;20457;-42
2022/01/15 06:02:45;;;;;;;8.70;3.70;;;3.20;99.90;;;;;;5020799;28;20488;-39
2022/01/15 06:05:12;;;;;;;4.80;2.13;;;3.20;99.90;;;;;;5020963;28;20519;-40
2022/01/15 06:07:39;;;;;;;8.43;3.83;;;3.20;99.90;;;;;;5021281;28;20492;-42
2022/01/15 06:10:06;;;;;;;12.60;2.73;;;3.20;99.90;;;;;;5022130;28;20492;-41
2022/01/15 06:12:41;;;;;;;10.37;3.23;;;3.20;99.90;;;;;;5022357;28;20456;-40
2022/01/15 06:15:12;;;;;;;6.33;3.20;;;3.20;99.90;;;;;;5022235;28;20492;-41
2022/01/15 06:17:40;;;;;;;7.30;2.93;;;3.10;99.90;;;;;;5024858;28;20463;-41
2022/01/15 06:20:12;;;;;;;10.67;5.30;;;3.00;99.90;;;;;;5022913;28;20507;-41
2022/01/15 06:22:39;;;;;;;5.63;3.20;;;3.00;99.90;;;;;;5022268;28;20465;-44
2022/01/15 06:25:07;;;;;;;5.53;3.47;;;3.00;99.90;;;;;;5021907;28;20492;-42
2022/01/15 06:27:34;;;;;;;6.07;4.90;;;2.90;99.90;;;;;;5022643;28;20833;-40
2022/01/15 06:30:00;;;;;;;14.33;3.47;;;2.90;99.90;;;;;;5022701;28;20518;-39
2022/01/15 06:32:28;;;;;;;11.40;2.90;;;2.80;99.90;;;;;;5022041;28;20615;-41
2022/01/15 06:34:55;;;;;;;7.87;2.50;;;2.80;99.90;;;;;;5021196;28;20480;-44
2022/01/15 06:37:23;;;;;;;12.30;2.83;;;2.80;99.90;;;;;;5022018;28;20797;-42
2022/01/15 06:39:50;;;;;;;3.30;2.13;;;2.80;99.90;;;;;;5022138;28;20487;-41
2022/01/15 06:42:17;;;;;;;6.63;3.40;;;2.80;99.90;;;;;;5022018;28;20468;-43
2022/01/15 06:44:44;;;;;;;6.10;2.50;;;2.70;99.90;;;;;;5022487;28;20477;-41
2022/01/15 06:47:11;;;;;;;5.23;2.83;;;2.60;99.90;;;;;;5022430;28;20457;-42
2022/01/15 06:49:39;;;;;;;5.50;2.00;;;2.60;99.90;;;;;;5023069;28;20472;-42
2022/01/15 06:52:07;;;;;;;6.77;2.30;;;2.60;99.90;;;;;;5022521;28;20497;-43
2022/01/15 06:54:35;;;;;;;2.67;2.07;;;2.50;99.90;;;;;;5023198;28;20480;-42
2022/01/15 06:57:01;;;;;;;12.27;2.77;;;2.50;99.90;;;;;;5024159;28;20496;-40
2022/01/15 06:59:28;;;;;;;5.13;2.57;;;2.30;99.90;;;;;;5024947;28;20449;-41
2022/01/15 07:01:55;;;;;;;8.83;2.80;;;2.30;99.90;;;;;;5024697;28;20479;-40
2022/01/15 07:04:23;;;;;;;3.50;2.10;;;2.30;99.90;;;;;;5023938;28;20441;-41
2022/01/15 07:06:50;;;;;;;37.77;3.10;;;2.30;99.90;;;;;;5022846;28;20464;-42
2022/01/15 07:09:17;;;;;;;4.40;2.57;;;2.30;99.90;;;;;;5026216;28;20476;-42
2022/01/15 07:11:45;;;;;;;6.10;2.97;;;2.30;99.90;;;;;;5024162;28;20484;-43
2022/01/15 07:14:12;;;;;;;10.53;2.40;;;2.30;99.90;;;;;;5022917;28;20461;-43
2022/01/15 07:16:38;;;;;;;20.60;3.93;;;2.30;99.90;;;;;;5022251;28;20453;-44
2022/01/15 07:19:05;;;;;;;4.60;2.47;;;2.40;99.90;;;;;;5021495;28;20457;-42
2022/01/15 07:21:32;;;;;;;10.43;2.83;;;2.40;99.90;;;;;;5022173;28;20468;-42
2022/01/15 07:23:58;;;;;;;5.67;2.33;;;2.50;99.90;;;;;;5026024;28;20535;-42
2022/01/15 07:26:25;;;;;;;11.20;3.10;;;2.50;99.90;;;;;;5024818;28;20449;-41
2022/01/15 07:28:53;;;;;;;5.20;3.63;;;2.40;99.90;;;;;;5022215;28;20449;-41
2022/01/15 07:31:20;;;;;;;7.20;4.20;;;2.40;99.90;;;;;;5022138;28;20481;-41
2022/01/15 07:33:47;;;;;;;8.53;4.00;;;2.40;99.90;;;;;;5021700;28;20498;-42
2022/01/15 07:36:14;;;;;;;19.07;4.40;;;2.40;99.90;;;;;;5021136;28;20875;-45
2022/01/15 07:38:40;;;;;;;9.00;4.20;;;2.50;99.90;;;;;;5021981;28;20453;-42
2022/01/15 07:41:11;;;;;;;13.57;3.70;;;2.50;99.90;;;;;;5021513;28;20907;-42
2022/01/15 07:43:38;;;;;;;10.80;3.97;;;2.40;99.90;;;;;;5021618;28;20496;-44
2022/01/15 07:46:06;;;;;;;14.87;4.93;;;2.40;99.90;;;;;;5022776;28;20469;-43
2022/01/15 07:48:33;;;;;;;13.10;4.40;;;2.50;99.90;;;;;;5025619;28;20446;-42
2022/01/15 07:50:59;;;;;;;7.30;3.53;;;2.50;99.90;;;;;;5027846;28;20483;-41
2022/01/15 07:53:26;;;;;;;9.37;5.30;;;2.50;99.90;;;;;;5027408;28;20453;-40
2022/01/15 07:55:53;;;;;;;4.33;3.77;;;2.50;99.90;;;;;;5025281;28;20445;-40
2022/01/15 07:58:20;;;;;;;8.80;4.47;;;2.50;99.90;;;;;;5024546;28;20477;-41
2022/01/15 08:00:47;;;;;;;21.17;4.17;;;2.50;99.90;;;;;;5027816;28;20512;-43
2022/01/15 08:03:15;;;;;;;7.50;4.10;;;2.50;99.90;;;;;;5025863;28;20452;-43
2022/01/15 08:05:41;;;;;;;6.77;3.10;;;2.60;99.90;;;;;;5024411;28;20893;-40
2022/01/15 08:08:08;;;;;;;22.77;4.00;;;2.60;99.90;;;;;;5024094;28;20444;-44
2022/01/15 08:10:35;;;;;;;15.00;4.90;;;2.60;99.90;;;;;;5024316;28;20472;-44
2022/01/15 08:13:02;;;;;;;9.13;4.60;;;2.70;99.90;;;;;;5024056;28;20452;-41
2022/01/15 08:15:29;;;;;;;25.23;5.93;;;2.70;99.90;;;;;;5025817;28;20493;-47
2022/01/15 08:17:56;;;;;;;24.63;6.23;;;2.70;99.90;;;;;;5027448;28;20520;-42
2022/01/15 08:20:24;;;;;;;16.43;4.40;;;2.80;99.90;;;;;;5023964;28;20449;-41
2022/01/15 08:22:52;;;;;;;17.60;5.40;;;2.90;99.90;;;;;;5023366;28;20461;-41
2022/01/15 08:25:22;;;;;;;10.73;5.07;;;2.90;99.90;;;;;;5022979;28;20449;-41
2022/01/15 08:27:49;;;;;;;8.43;4.53;;;3.00;99.90;;;;;;5022957;28;20527;-41
2022/01/15 08:30:17;;;;;;;14.87;7.57;;;2.90;99.90;;;;;;5023200;28;20995;-43
2022/01/15 08:32:44;;;;;;;7.93;5.13;;;2.90;99.90;;;;;;5023657;28;20512;-40
2022/01/15 08:35:12;;;;;;;9.30;5.50;;;2.90;99.90;;;;;;5023944;28;20477;-41
2022/01/15 08:37:43;;;;;;;14.30;5.00;;;3.00;99.90;;;;;;5024236;28;20453;-42
2022/01/15 08:40:15;;;;;;;15.23;4.97;;;3.00;99.90;;;;;;5024397;28;20480;-42
2022/01/15 08:42:42;;;;;;;19.20;5.97;;;3.10;99.90;;;;;;5025885;28;20446;-43
2022/01/15 08:45:10;;;;;;;9.93;3.70;;;3.10;99.90;;;;;;5025925;28;20448;-43
2022/01/15 08:47:37;;;;;;;15.33;5.00;;;3.20;99.90;;;;;;5024077;28;20842;-42
2022/01/15 08:50:06;;;;;;;8.43;3.60;;;3.20;99.90;;;;;;5023838;28;20445;-41
2022/01/15 08:52:33;;;;;;;8.40;4.53;;;3.20;99.90;;;;;;5024177;28;20528;-41
2022/01/15 08:55:01;;;;;;;16.60;5.07;;;3.20;99.90;;;;;;5024202;28;20473;-41
2022/01/15 08:57:34;;;;;;;11.50;5.30;;;3.20;99.90;;;;;;5023303;28;20469;-48
2022/01/15 09:00:01;;;;;;;16.57;5.70;;;3.20;99.90;;;;;;5023976;28;20456;-42
2022/01/15 09:02:28;;;;;;;21.77;4.70;;;3.20;99.90;;;;;;5021666;28;20497;-42
2022/01/15 09:04:55;;;;;;;8.47;4.93;;;3.30;99.90;;;;;;5024995;28;20432;-40
2022/01/15 09:07:21;;;;;;;15.80;5.23;;;3.20;99.90;;;;;;5037806;28;20433;-46
2022/01/15 09:09:48;;;;;;;7.93;4.47;;;3.10;99.90;;;;;;5037660;28;20456;-42
2022/01/15 09:12:17;;;;;;;10.07;5.67;;;3.10;99.90;;;;;;5037530;28;20499;-42
2022/01/15 09:14:44;;;;;;;12.30;6.30;;;3.10;99.90;;;;;;5037536;28;20460;-43
2022/01/15 09:17:11;;;;;;;14.27;6.00;;;3.10;99.90;;;;;;5036556;28;20426;-45
2022/01/15 09:19:38;;;;;;;15.30;6.07;;;3.20;99.90;;;;;;5037154;28;20446;-39
2022/01/15 09:22:08;;;;;;;5.33;3.20;;;3.20;99.90;;;;;;5037027;28;20457;-43
2022/01/15 09:24:35;;;;;;;8.33;3.03;;;3.20;99.90;;;;;;5036549;28;20501;-41
2022/01/15 09:30:11;;;;;;;12.77;3.73;;;3.10;99.90;;;;;;5036372;28;20460;-39
2022/01/15 09:32:34;;;;;;;9.10;4.17;;;3.20;99.90;;;;;;5036997;28;20485;-41
2022/01/15 09:35:07;;;;;;;19.77;5.93;;;3.20;99.90;;;;;;5037793;28;20444;-41
2022/01/15 09:37:34;;;;;;;15.73;4.77;;;3.20;99.90;;;;;;5037002;28;20476;-41
2022/01/15 09:40:07;;;;;;;13.40;6.20;;;3.10;99.90;;;;;;5087576;22;20493;-45
2022/01/15 09:42:38;;;;;;;12.20;6.13;;;3.10;99.90;;;;;;5053120;28;20492;-51
2022/01/15 09:45:08;;;;;;;9.97;5.53;;;3.20;99.90;;;;;;5053090;28;20523;-46
2022/01/15 09:47:35;;;;;;;8.57;4.30;;;3.20;99.90;;;;;;5048684;28;20483;-49
2022/01/15 09:50:04;;;;;;;8.93;4.03;;;3.30;99.90;;;;;;5053125;28;20441;-46
2022/01/15 09:52:32;;;;;;;8.13;5.10;;;3.30;99.90;;;;;;5052475;28;20477;-45
2022/01/15 09:54:59;;;;;;;8.73;4.43;;;3.40;99.90;;;;;;5053067;28;20460;-50
2022/01/15 09:57:25;;;;;;;5.27;4.53;;;3.40;99.90;;;;;;5054249;28;20516;-57
2022/01/15 09:59:54;;;;;;;17.43;4.47;;;3.50;99.90;;;;;;5045680;28;20452;-46
2022/01/15 10:02:22;;;;;;;9.43;4.43;;;3.60;99.90;;;;;;5055445;28;20455;-49
2022/01/15 10:04:49;;;;;;;6.00;3.47;;;3.60;99.90;;;;;;5049001;28;20462;-47
2022/01/15 10:07:17;;;;;;;10.77;6.23;;;3.60;99.90;;;;;;5047610;28;20433;-47
2022/01/15 10:09:45;;;;;;;19.50;5.63;;;3.70;99.90;;;;;;5044719;28;20464;-52
2022/01/15 10:12:23;;;;;;;16.43;5.63;;;3.80;99.90;;;;;;5055966;28;20487;-51
2022/01/15 10:14:49;;;;;;;20.30;4.33;;;3.90;99.90;;;;;;5048802;28;20798;-51
2022/01/15 10:17:24;;;;;;;9.90;3.57;;;4.00;99.90;;;;;;5043784;28;20451;-53
2022/01/15 10:19:52;;;;;;;14.53;6.97;;;4.00;99.90;;;;;;5044087;28;20464;-45
2022/01/15 10:22:20;;;;;;;17.13;5.60;;;4.00;99.90;;;;;;5041241;28;20464;-50
2022/01/15 10:24:53;;;;;;;23.10;6.87;;;4.00;99.90;;;;;;5043150;28;20519;-50
2022/01/15 10:27:22;;;;;;;23.93;6.03;;;4.00;99.90;;;;;;5055696;28;20444;-51
2022/01/15 10:29:51;;;;;;;13.57;6.70;;;3.80;99.90;;;;;;5055860;28;20529;-49
2022/01/15 10:32:17;;;;;;;9.53;5.43;;;3.80;99.90;;;;;;5056117;28;20460;-50
2022/01/15 10:34:49;;;;;;;11.73;5.57;;;3.80;99.90;;;;;;5055200;28;20445;-48
2022/01/15 10:37:18;;;;;;;13.63;5.77;;;3.90;99.90;;;;;;5055097;28;20421;-47
2022/01/15 10:39:56;;;;;;;24.37;4.63;;;4.00;99.90;;;;;;5048619;28;20455;-50
2022/01/15 10:42:23;;;;;;;13.30;4.87;;;4.00;99.90;;;;;;5056042;28;20439;-52
2022/01/15 10:44:51;;;;;;;28.43;6.47;;;3.90;99.90;;;;;;5049813;28;20456;-45
2022/01/15 10:47:19;;;;;;;5.50;3.60;;;3.90;99.90;;;;;;5038518;28;20453;-49
2022/01/15 10:49:48;;;;;;;10.60;4.73;;;3.90;99.90;;;;;;5035339;28;20441;-48
2022/01/15 10:52:17;;;;;;;9.70;3.80;;;3.90;99.90;;;;;;5035743;28;20488;-54
2022/01/15 10:54:53;;;;;;;20.87;5.27;;;3.90;99.90;;;;;;5034989;28;20454;-46
2022/01/15 10:57:22;;;;;;;8.73;4.17;;;3.80;99.90;;;;;;5036326;28;20479;-63
2022/01/15 11:00:00;;;;;;;12.03;5.87;;;3.80;99.90;;;;;;5043599;28;20432;-50
2022/01/15 11:02:28;;;;;;;7.60;3.83;;;3.90;99.90;;;;;;5043189;28;20467;-46
2022/01/15 11:04:57;;;;;;;19.03;6.03;;;3.90;99.90;;;;;;5048506;28;20441;-51
2022/01/15 11:07:24;;;;;;;11.07;5.23;;;3.80;99.90;;;;;;5049561;28;20465;-52
2022/01/15 11:09:53;;;;;;;12.77;5.60;;;3.70;99.90;;;;;;5047593;28;20436;-51
2022/01/15 11:12:20;;;;;;;13.87;5.67;;;3.70;99.90;;;;;;5046455;28;20473;-47
2022/01/15 11:14:53;;;;;;;16.00;4.93;;;3.80;99.90;;;;;;5047620;28;20462;-46
2022/01/15 11:17:21;;;;;;;13.00;6.10;;;3.80;99.90;;;;;;5048936;28;20472;-47
2022/01/15 11:19:52;;;;;;;20.70;5.27;;;3.90;99.90;;;;;;5036042;28;20426;-51
2022/01/15 11:22:22;;;;;;;15.03;4.70;;;3.80;99.90;;;;;;5039169;28;20709;-47
2022/01/15 11:24:50;;;;;;;21.87;5.97;;;3.90;99.90;;;;;;5039474;28;20440;-48
2022/01/15 11:27:18;;;;;;;5.37;4.23;;;3.80;99.90;;;;;;5039421;28;20452;-44
2022/01/15 11:29:49;;;;;;;7.80;4.33;;;3.80;99.90;;;;;;5039726;28;20961;-54
2022/01/15 11:32:17;;;;;;;6.80;4.63;;;3.80;99.90;;;;;;5039409;28;20488;-51
2022/01/15 11:35:06;;;;;;;16.20;5.27;;;3.90;99.90;;;;;;5039350;28;20476;-51
2022/01/15 11:37:42;;;;;;;5.90;2.77;;;4.00;99.90;;;;;;5039682;28;20477;-52
2022/01/15 11:40:46;;;;;;;18.73;4.20;;;3.90;99.90;;;;;;5039967;28;20456;-50
2022/01/15 11:43:43;;;;;;;7.20;3.10;;;3.70;99.90;;;;;;5039197;28;20448;-47
2022/01/15 11:46:25;;;;;;;7.37;4.07;;;3.70;99.90;;;;;;5027411;28;20462;-47
2022/01/15 11:48:52;;;;;;;26.90;3.17;;;3.70;99.90;;;;;;5043514;28;20440;-50
2022/01/15 11:51:27;;;;;;;6.50;2.00;;;3.60;99.90;;;;;;5045332;28;20448;-50
2022/01/15 11:53:58;;;;;;;10.00;2.87;;;3.60;99.90;;;;;;5054998;28;20485;-49
2022/01/15 11:56:27;;;;;;;7.17;3.30;;;3.60;99.90;;;;;;5059064;28;20425;-46
2022/01/15 11:58:58;;;;;;;5.37;1.90;;;3.60;99.90;;;;;;5051423;28;21031;-55
2022/01/15 12:01:43;;;;;;;4.97;3.40;;;3.50;99.90;;;;;;5046836;28;20442;-46
2022/01/15 12:04:27;;;;;;;7.30;2.47;;;3.50;99.90;;;;;;5038147;28;20488;-46
2022/01/15 12:07:22;;;;;;;7.17;2.50;;;3.50;99.90;;;;;;5039777;28;20894;-52
2022/01/15 12:09:53;;;;;;;8.30;2.40;;;3.60;99.90;;;;;;5039249;28;20432;-53
2022/01/15 12:12:47;;;;;;;6.23;2.67;;;3.60;99.90;;;;;;5039547;28;20680;-48
2022/01/15 12:15:17;;;;;;;12.13;2.73;;;3.60;99.90;;;;;;5039331;28;20484;-50
2022/01/15 12:17:46;;;;;;;21.03;3.33;;;3.70;99.90;;;;;;5042248;28;20457;-49
2022/01/15 12:20:35;;;;;;;10.20;3.67;;;3.60;99.90;;;;;;5047260;28;20468;-45
2022/01/15 12:23:05;;;;;;;17.30;4.50;;;4.20;99.90;;;;;;5047417;28;20501;-47
2022/01/15 12:25:35;;;;;;;10.77;4.30;;;5.30;99.90;;;;;;5038837;28;20528;-53
2022/01/15 12:28:04;;;;;;;5.60;3.40;;;6.20;99.90;;;;;;5038896;28;20426;-51
2022/01/15 12:30:33;;;;;;;8.53;3.20;;;6.10;99.90;;;;;;5038825;28;20466;-48
2022/01/15 12:33:04;;;;;;;11.47;3.83;;;5.60;99.90;;;;;;5036235;28;20485;-53
2022/01/15 12:35:34;;;;;;;7.53;2.70;;;5.20;99.90;;;;;;5036583;28;20497;-48
2022/01/15 12:38:03;;;;;;;7.80;3.07;;;4.80;99.90;;;;;;5037304;28;20438;-48
2022/01/15 12:40:37;;;;;;;7.03;2.90;;;4.50;99.90;;;;;;5036596;28;20493;-49
2022/01/15 12:43:06;;;;;;;8.50;3.70;;;4.40;99.90;;;;;;5035616;28;20418;-50
2022/01/15 12:45:34;;;;;;;25.27;3.97;;;4.40;99.90;;;;;;5035723;28;20512;-43
2022/01/15 12:48:08;;;;;;;7.63;4.13;;;4.40;99.90;;;;;;5035203;28;20458;-48
2022/01/15 12:50:46;;;;;;;7.70;3.30;;;4.30;99.90;;;;;;5035809;28;20489;-50
2022/01/15 12:53:15;;;;;;;9.00;3.73;;;4.30;99.90;;;;;;5036190;28;20493;-51
2022/01/15 12:55:43;;;;;;;8.17;3.77;;;4.20;99.90;;;;;;5035925;28;20430;-47
2022/01/15 12:58:15;;;;;;;9.40;3.40;;;4.20;99.90;;;;;;5036119;28;20446;-52
2022/01/15 13:00:42;;;;;;;12.73;3.57;;;4.20;99.90;;;;;;5035257;28;20434;-49
2022/01/15 13:03:10;;;;;;;4.57;3.30;;;4.20;99.90;;;;;;5035251;28;20438;-48
2022/01/15 13:05:40;;;;;;;8.50;4.70;;;4.20;99.90;;;;;;5035675;28;20453;-50
2022/01/15 13:08:10;;;;;;;20.20;4.90;;;4.30;99.90;;;;;;5036518;28;20448;-50
2022/01/15 13:10:46;;;;;;;18.33;4.80;;;4.30;99.90;;;;;;5036386;28;20532;-48
2022/01/15 13:13:23;;;;;;;6.60;3.80;;;4.30;99.90;;;;;;5036414;28;20464;-49
2022/01/15 13:15:59;;;;;;;5.93;3.00;;;4.10;99.90;;;;;;5036510;28;20492;-52
2022/01/15 13:18:28;;;;;;;13.70;4.67;;;4.00;99.90;;;;;;5036305;28;20431;-47
2022/01/15 13:20:56;;;;;;;11.43;4.40;;;4.10;99.90;;;;;;5036162;28;20445;-46